createdAt,value
2018-11-25T00:01:39.219Z,16.83
2018-11-25T00:04:09.206Z,23.33
2018-11-25T00:06:39.128Z,21.77
2018-11-25T00:09:09.695Z,18.83
2018-11-25T00:11:39.617Z,12.67
2018-11-25T00:14:09.599Z,11.10
2018-11-25T00:16:39.608Z,17.30
2018-11-25T00:19:09.531Z,14.93
2018-11-25T00:21:39.436Z,22.10
2018-11-25T00:24:09.272Z,20.10
2018-11-25T00:26:39.268Z,16.70
2018-11-25T00:29:09.084Z,24.70
2018-11-25T00:31:38.996Z,21.07
2018-11-25T00:34:08.848Z,25.00
2018-11-25T00:36:38.824Z,19.33
2018-11-25T00:39:10.747Z,21.73
2018-11-25T00:41:40.606Z,22.67
2018-11-25T00:44:10.524Z,23.23
2018-11-25T00:46:40.575Z,19.73
2018-11-25T00:49:10.606Z,16.97
2018-11-25T00:51:40.611Z,19.67
2018-11-25T00:54:10.539Z,22.50
2018-11-25T00:56:40.496Z,23.90
2018-11-25T00:59:10.337Z,22.13
2018-11-25T01:01:40.332Z,15.80
2018-11-25T01:04:10.153Z,15.90
2018-11-25T01:06:40.159Z,19.07
2018-11-25T01:09:10.381Z,14.87
2018-11-25T01:11:40.215Z,14.10
2018-11-25T01:14:10.212Z,14.73
2018-11-25T01:16:40.268Z,18.07
2018-11-25T01:19:10.152Z,19.03
2018-11-25T01:21:40.099Z,12.17
2018-11-25T01:24:10.000Z,13.97
2018-11-25T01:26:39.996Z,17.40
2018-11-25T01:29:09.843Z,16.80
2018-11-25T01:31:39.826Z,22.13
2018-11-25T01:34:09.776Z,23.30
2018-11-25T01:36:39.671Z,22.47
2018-11-25T01:39:09.812Z,21.80
2018-11-25T01:41:39.727Z,28.20
2018-11-25T01:44:09.704Z,23.77
2018-11-25T01:46:39.763Z,16.20
2018-11-25T01:49:09.675Z,16.13
2018-11-25T01:51:39.655Z,13.47
2018-11-25T01:54:09.493Z,18.60
2018-11-25T01:56:39.488Z,18.27
2018-11-25T01:59:09.310Z,22.50
2018-11-25T02:01:39.315Z,16.23
2018-11-25T02:04:09.268Z,23.53
2018-11-25T02:06:39.157Z,22.43
2018-11-25T02:09:09.820Z,22.97
2018-11-25T02:11:40.344Z,23.17
2018-11-25T02:14:10.320Z,24.97
2018-11-25T02:16:40.258Z,16.33
2018-11-25T02:19:10.247Z,15.57
2018-11-25T02:21:40.170Z,16.27
2018-11-25T02:24:10.082Z,23.37
2018-11-25T02:26:40.039Z,15.03
2018-11-25T02:29:10.073Z,20.00
2018-11-25T02:31:40.037Z,14.83
2018-11-25T02:34:09.863Z,14.43
2018-11-25T02:36:39.863Z,14.50
2018-11-25T02:39:10.602Z,28.23
2018-11-25T02:41:40.656Z,22.90
2018-11-25T02:44:10.586Z,17.23
2018-11-25T02:46:40.590Z,18.60
2018-11-25T02:49:10.468Z,16.27
2018-11-25T02:51:40.371Z,13.00
2018-11-25T02:54:10.231Z,12.93
2018-11-25T02:56:40.210Z,13.70
2018-11-25T02:59:10.029Z,15.23
2018-11-25T03:01:39.943Z,14.33
2018-11-25T03:04:10.009Z,15.07
2018-11-25T03:06:39.911Z,12.17
2018-11-25T03:09:09.925Z,13.67
2018-11-25T03:11:39.840Z,14.23
2018-11-25T03:14:09.824Z,15.93
2018-11-25T03:16:39.778Z,15.40
2018-11-25T03:19:10.037Z,15.77
2018-11-25T03:21:40.080Z,28.50
2018-11-25T03:24:09.906Z,20.90
2018-11-25T03:26:39.909Z,23.23
2018-11-25T03:29:09.858Z,16.97
2018-11-25T03:31:39.739Z,13.87
2018-11-25T03:34:09.687Z,12.80
2018-11-25T03:36:39.589Z,12.50
2018-11-25T03:39:09.792Z,12.00
2018-11-25T03:41:39.843Z,10.90
2018-11-25T03:44:11.368Z,10.90
2018-11-25T03:46:41.376Z,10.63
2018-11-25T03:49:11.396Z,12.53
2018-11-25T03:51:41.228Z,9.57
2018-11-25T03:54:11.264Z,13.53
2018-11-25T03:56:41.159Z,11.33
2018-11-25T03:59:11.159Z,17.60
2018-11-25T04:01:41.007Z,17.17
2018-11-25T04:04:10.984Z,17.93
2018-11-25T04:06:41.003Z,16.70
2018-11-25T04:09:11.060Z,18.47
2018-11-25T04:11:41.035Z,14.07
2018-11-25T04:14:10.972Z,16.20
2018-11-25T04:16:41.021Z,16.47
2018-11-25T04:19:11.027Z,17.10
2018-11-25T04:21:40.946Z,15.87
2018-11-25T04:24:10.923Z,17.13
2018-11-25T04:26:40.855Z,13.87
2018-11-25T04:29:10.840Z,12.77
2018-11-25T04:31:40.791Z,12.87
2018-11-25T04:34:10.684Z,12.80
2018-11-25T04:36:40.801Z,12.27
2018-11-25T04:39:10.972Z,12.77
2018-11-25T04:41:40.853Z,15.83
2018-11-25T04:44:10.957Z,13.30
2018-11-25T04:46:40.896Z,18.67
2018-11-25T04:49:10.891Z,20.43
2018-11-25T04:51:41.215Z,21.20
2018-11-25T04:54:11.039Z,20.43
2018-11-25T04:56:41.036Z,21.53
2018-11-25T04:59:10.985Z,20.10
2018-11-25T05:01:40.933Z,25.03
2018-11-25T05:04:10.928Z,18.50
2018-11-25T05:06:40.843Z,17.80
2018-11-25T05:09:10.924Z,21.80
2018-11-25T05:11:40.749Z,18.97
2018-11-25T05:14:10.751Z,16.50
2018-11-25T05:16:40.772Z,19.60
2018-11-25T05:19:10.629Z,21.77
2018-11-25T05:21:40.499Z,17.97
2018-11-25T05:24:10.316Z,18.40
2018-11-25T05:26:40.328Z,14.43
2018-11-25T05:29:10.289Z,15.37
2018-11-25T05:31:40.216Z,16.13
2018-11-25T05:34:10.216Z,15.07
2018-11-25T05:36:40.114Z,18.90
2018-11-25T05:39:10.513Z,9.97
2018-11-25T05:41:40.472Z,16.40
2018-11-25T05:44:10.408Z,18.43
2018-11-25T05:46:40.629Z,15.90
2018-11-25T05:49:10.524Z,17.10
2018-11-25T05:51:40.496Z,12.80
2018-11-25T05:54:10.332Z,13.47
2018-11-25T05:56:40.334Z,13.67
2018-11-25T05:59:10.183Z,15.23
2018-11-25T06:01:40.180Z,14.97
2018-11-25T06:04:10.220Z,11.37
2018-11-25T06:06:40.099Z,11.80
2018-11-25T06:09:10.419Z,12.00
2018-11-25T06:11:40.378Z,18.10
2018-11-25T06:14:10.307Z,11.03
2018-11-25T06:16:40.365Z,11.53
2018-11-25T06:19:10.191Z,14.43
2018-11-25T06:21:40.193Z,11.47
2018-11-25T06:24:10.269Z,12.90
2018-11-25T06:26:40.189Z,15.20
2018-11-25T06:29:10.188Z,15.00
2018-11-25T06:31:40.068Z,15.33
2018-11-25T06:34:10.019Z,15.40
2018-11-25T06:36:39.900Z,15.63
2018-11-25T06:39:10.318Z,13.77
2018-11-25T06:41:40.236Z,20.13
2018-11-25T06:44:10.153Z,19.23
2018-11-25T06:46:40.241Z,14.70
2018-11-25T06:49:10.179Z,13.37
2018-11-25T06:51:40.040Z,20.47
2018-11-25T06:54:10.117Z,19.57
2018-11-25T06:56:40.195Z,23.40
2018-11-25T06:59:10.093Z,16.50
2018-11-25T07:01:40.005Z,18.23
2018-11-25T07:04:09.884Z,13.43
2018-11-25T07:06:39.904Z,24.00
2018-11-25T07:09:11.053Z,13.30
2018-11-25T07:11:41.056Z,14.60
2018-11-25T07:14:10.880Z,13.90
2018-11-25T07:16:41.047Z,12.90
2018-11-25T07:19:11.010Z,18.43
2018-11-25T07:21:40.829Z,15.83
2018-11-25T07:24:10.843Z,17.97
2018-11-25T07:26:40.897Z,14.07
2018-11-25T07:29:10.823Z,18.43
2018-11-25T07:31:40.829Z,19.43
2018-11-25T07:34:10.760Z,16.40
2018-11-25T07:36:40.759Z,16.53
2018-11-25T07:39:10.648Z,20.33
2018-11-25T07:41:40.852Z,14.20
2018-11-25T07:44:10.817Z,17.67
2018-11-25T07:46:40.745Z,20.63
2018-11-25T07:49:10.908Z,12.57
2018-11-25T07:51:40.728Z,13.20
2018-11-25T07:54:10.639Z,13.40
2018-11-25T07:56:40.704Z,13.73
2018-11-25T07:59:10.626Z,13.90
2018-11-25T08:01:40.612Z,17.83
2018-11-25T08:04:10.600Z,19.37
2018-11-25T08:06:40.620Z,22.77
2018-11-25T08:09:10.490Z,19.40
2018-11-25T08:11:40.445Z,24.40
2018-11-25T08:14:10.419Z,21.03
2018-11-25T08:16:40.384Z,23.27
2018-11-25T08:19:10.400Z,21.10
2018-11-25T08:21:40.273Z,27.90
2018-11-25T08:24:10.232Z,24.90
2018-11-25T08:26:40.201Z,30.67
2018-11-25T08:29:10.160Z,31.97
2018-11-25T08:31:39.988Z,33.50
2018-11-25T08:34:10.001Z,33.23
2018-11-25T08:36:40.055Z,27.40
2018-11-25T08:39:10.376Z,32.27
2018-11-25T08:41:40.351Z,26.60
2018-11-25T08:44:10.307Z,19.50
2018-11-25T08:46:40.241Z,18.77
2018-11-25T08:49:10.205Z,28.20
2018-11-25T08:51:40.064Z,28.07
2018-11-25T08:54:09.928Z,29.47
2018-11-25T08:56:39.884Z,31.13
2018-11-25T08:59:10.024Z,34.17
2018-11-25T09:01:40.024Z,29.80
2018-11-25T09:04:10.055Z,29.87
2018-11-25T09:06:40.012Z,28.83
2018-11-25T09:09:10.178Z,29.37
2018-11-25T09:11:40.068Z,24.23
2018-11-25T09:14:10.072Z,23.00
2018-11-25T09:16:39.988Z,28.37
2018-11-25T09:19:09.900Z,22.90
2018-11-25T09:21:39.779Z,22.83
2018-11-25T09:24:09.734Z,22.23
2018-11-25T09:26:40.669Z,17.43
2018-11-25T09:29:10.586Z,19.07
2018-11-25T09:31:40.449Z,17.40
2018-11-25T09:34:10.695Z,16.20
2018-11-25T09:36:40.635Z,19.43
2018-11-25T09:39:10.827Z,21.10
2018-11-25T09:41:40.764Z,15.07
2018-11-25T09:44:10.727Z,15.27
2018-11-25T09:46:42.664Z,14.43
2018-11-25T09:49:10.612Z,14.27
2018-11-25T09:51:41.190Z,12.07
2018-11-25T09:54:11.160Z,13.53
2018-11-25T09:56:41.102Z,11.00
2018-11-25T09:59:11.093Z,12.77
2018-11-25T10:01:40.939Z,13.37
2018-11-25T10:04:10.924Z,17.43
2018-11-25T10:06:40.944Z,15.83
2018-11-25T10:09:10.915Z,14.20
2018-11-25T10:11:40.916Z,14.50
2018-11-25T10:14:10.848Z,16.73
2018-11-25T10:16:40.810Z,18.77
2018-11-25T10:19:10.937Z,19.47
2018-11-25T10:21:41.106Z,21.37
2018-11-25T10:24:11.064Z,15.00
2018-11-25T10:26:41.111Z,20.23
2018-11-25T10:29:11.101Z,14.30
2018-11-25T10:31:41.056Z,15.87
2018-11-25T10:34:10.953Z,16.33
2018-11-25T10:36:41.260Z,15.90
2018-11-25T10:39:11.324Z,13.63
2018-11-25T10:41:41.192Z,18.17
2018-11-25T10:44:11.199Z,14.37
2018-11-25T10:46:41.145Z,17.57
2018-11-25T10:49:11.036Z,17.77
2018-11-25T10:51:40.918Z,15.00
2018-11-25T10:54:10.869Z,13.80
2018-11-25T10:56:40.988Z,15.10
2018-11-25T10:59:10.813Z,16.10
2018-11-25T11:01:52.937Z,12.93
2018-11-25T11:04:27.887Z,12.23
2018-11-25T11:08:03.854Z,14.93
2018-11-25T11:10:33.812Z,19.33
2018-11-25T11:13:03.664Z,17.30
2018-11-25T11:15:33.640Z,19.37
2018-11-25T11:18:03.492Z,19.53
2018-11-25T11:20:33.478Z,17.03
2018-11-25T11:23:03.323Z,14.27
2018-11-25T11:25:33.296Z,14.47
2018-11-25T11:28:03.269Z,14.07
2018-11-25T11:30:33.152Z,15.90
2018-11-25T11:33:03.147Z,12.47
2018-11-25T11:35:33.106Z,11.37
2018-11-25T11:38:03.087Z,14.33
2018-11-25T11:40:33.096Z,14.33
2018-11-25T11:43:02.939Z,17.73
2018-11-25T11:45:32.931Z,13.57
2018-11-25T11:48:02.772Z,13.17
2018-11-25T11:50:32.756Z,12.83
2018-11-25T11:53:02.713Z,10.73
2018-11-25T11:55:32.688Z,9.20
2018-11-25T11:58:02.647Z,6.47
2018-11-25T12:00:32.965Z,6.73
2018-11-25T12:03:02.945Z,6.73
2018-11-25T12:05:33.016Z,7.00
2018-11-25T12:08:02.976Z,7.83
2018-11-25T12:10:33.201Z,6.20
2018-11-25T12:13:03.016Z,8.00
2018-11-25T12:15:33.466Z,5.70
2018-11-25T12:18:03.470Z,6.30
2018-11-25T12:20:33.779Z,6.63
2018-11-25T12:23:03.861Z,6.50
2018-11-25T12:25:33.854Z,7.00
2018-11-25T12:28:03.890Z,4.97
2018-11-25T12:30:33.861Z,7.17
2018-11-25T12:33:03.813Z,7.57
2018-11-25T12:35:33.693Z,8.00
2018-11-25T12:38:03.749Z,6.80
2018-11-25T12:40:33.673Z,9.27
2018-11-25T12:43:03.637Z,8.73
2018-11-25T12:45:33.651Z,8.43
2018-11-25T12:48:03.504Z,7.23
2018-11-25T12:50:33.522Z,6.87
2018-11-25T12:53:03.428Z,8.10
2018-11-25T12:55:33.455Z,5.23
2018-11-25T12:58:03.368Z,5.43
2018-11-25T13:00:37.571Z,5.37
2018-11-25T13:03:08.820Z,3.37
2018-11-25T13:05:45.638Z,4.43
2018-11-25T13:08:10.112Z,3.97
2018-11-25T13:10:40.012Z,4.37
2018-11-25T13:13:10.928Z,3.77
2018-11-25T13:15:40.930Z,4.72
2018-11-25T13:18:11.247Z,4.10
2018-11-25T13:20:41.218Z,4.17
2018-11-25T13:23:11.296Z,6.00
2018-11-25T13:25:41.345Z,4.50
2018-11-25T13:28:11.274Z,4.33
2018-11-25T13:30:41.235Z,4.25
2018-11-25T13:33:11.056Z,4.05
2018-11-25T13:35:41.629Z,3.30
2018-11-25T13:38:11.589Z,1.60
2018-11-25T13:40:41.447Z,2.85
2018-11-25T13:43:11.520Z,4.67
2018-11-25T13:45:41.791Z,3.55
2018-11-25T13:48:11.672Z,2.83
2018-11-25T13:50:41.587Z,1.85
2018-11-25T13:53:11.537Z,1.65
2018-11-25T13:55:41.517Z,1.20
2018-11-25T13:58:11.351Z,1.77
2018-11-25T14:00:48.766Z,2.40
2018-11-25T14:03:25.447Z,2.40
2018-11-25T14:05:55.343Z,2.90
2018-11-25T14:08:25.359Z,3.63
2018-11-25T14:11:01.321Z,3.43
2018-11-25T14:13:31.600Z,1.80
2018-11-25T14:16:01.660Z,3.40
2018-11-25T14:18:31.577Z,3.20
2018-11-25T14:21:01.491Z,2.90
2018-11-25T14:23:31.573Z,2.70
2018-11-25T14:26:08.137Z,2.83
2018-11-25T14:28:38.251Z,2.83
2018-11-25T14:31:08.232Z,3.03
2018-11-25T14:33:38.187Z,2.57
2018-11-25T14:36:08.415Z,3.70
2018-11-25T14:38:38.372Z,4.07
2018-11-25T14:41:08.339Z,4.50
2018-11-25T14:43:38.317Z,2.60
2018-11-25T14:46:08.199Z,2.90
2018-11-25T14:48:38.237Z,2.93
2018-11-25T14:51:08.165Z,2.33
2018-11-25T14:53:38.079Z,3.47
2018-11-25T14:56:07.948Z,4.13
2018-11-25T14:58:37.955Z,4.43
2018-11-25T15:01:07.788Z,5.10
2018-11-25T15:03:37.780Z,5.33
2018-11-25T15:06:07.947Z,5.43
2018-11-25T15:08:37.844Z,6.70
2018-11-25T15:11:08.201Z,4.40
2018-11-25T15:13:38.064Z,4.40
2018-11-25T15:16:10.663Z,3.70
2018-11-25T15:18:40.564Z,4.17
2018-11-25T15:21:11.497Z,4.03
2018-11-25T15:23:41.464Z,2.87
2018-11-25T15:26:13.264Z,2.73
2018-11-25T15:28:43.293Z,4.27
2018-11-25T15:31:13.203Z,3.00
2018-11-25T15:33:43.157Z,5.73
2018-11-25T15:36:13.056Z,2.27
2018-11-25T15:38:43.048Z,1.90
2018-11-25T15:41:13.000Z,3.00
2018-11-25T15:43:42.980Z,3.97
2018-11-25T15:46:13.051Z,3.20
2018-11-25T15:48:43.008Z,4.70
2018-11-25T15:51:12.928Z,5.57
2018-11-25T15:53:42.895Z,5.17
2018-11-25T15:56:13.950Z,4.37
2018-11-25T15:58:43.900Z,4.97
2018-11-25T16:01:13.861Z,4.30
2018-11-25T16:03:43.806Z,5.77
2018-11-25T16:06:16.482Z,5.60
2018-11-25T16:08:46.446Z,6.37
2018-11-25T16:11:16.465Z,10.27
2018-11-25T16:13:46.402Z,4.43
2018-11-25T16:16:16.598Z,5.67
2018-11-25T16:18:46.645Z,6.13
2018-11-25T16:21:16.676Z,5.00
2018-11-25T16:23:46.735Z,8.93
2018-11-25T16:26:21.425Z,7.43
2018-11-25T16:28:53.136Z,8.53
2018-11-25T16:31:23.448Z,10.97
2018-11-25T16:33:53.402Z,47.00
2018-11-25T16:36:23.333Z,17.13
2018-11-25T16:38:53.292Z,10.87
2018-11-25T16:41:23.111Z,10.83
2018-11-25T16:43:53.016Z,10.03
2018-11-25T16:46:23.336Z,12.60
2018-11-25T16:48:53.387Z,13.63
2018-11-25T16:51:23.380Z,12.20
2018-11-25T16:53:53.348Z,10.70
2018-11-25T16:56:23.311Z,10.43
2018-11-25T16:58:53.219Z,12.63
2018-11-25T17:01:23.083Z,13.07
2018-11-25T17:03:53.173Z,18.80
2018-11-25T17:06:23.221Z,14.33
2018-11-25T17:08:53.112Z,12.37
2018-11-25T17:11:23.109Z,16.13
2018-11-25T17:13:52.929Z,17.87
2018-11-25T17:16:22.947Z,16.40
2018-11-25T17:18:53.055Z,15.23
2018-11-25T17:21:22.899Z,13.87
2018-11-25T17:23:53.544Z,18.03
2018-11-25T17:26:23.515Z,16.30
2018-11-25T17:28:53.463Z,13.50
2018-11-25T17:31:23.480Z,17.10
2018-11-25T17:33:53.473Z,11.17
2018-11-25T17:36:23.403Z,14.03
2018-11-25T17:38:53.407Z,20.20
2018-11-25T17:41:23.296Z,19.47
2018-11-25T17:43:53.232Z,20.80
2018-11-25T17:46:23.254Z,22.33
2018-11-25T17:48:53.075Z,18.03
2018-11-25T17:51:22.985Z,18.90
2018-11-25T17:53:53.200Z,18.27
2018-11-25T17:56:23.141Z,18.87
2018-11-25T17:58:53.239Z,23.37
2018-11-25T18:01:23.191Z,24.97
2018-11-25T18:03:53.111Z,23.33
2018-11-25T18:06:23.083Z,26.27
2018-11-25T18:08:52.924Z,26.23
2018-11-25T18:11:22.916Z,25.07
2018-11-25T18:13:52.887Z,20.77
2018-11-25T18:16:22.859Z,18.20
2018-11-25T18:19:05.208Z,20.20
2018-11-25T18:21:35.108Z,15.40
2018-11-25T18:24:05.074Z,13.80
2018-11-25T18:26:35.022Z,12.33
2018-11-25T18:29:05.008Z,12.60
2018-11-25T18:31:34.974Z,27.03
2018-11-25T18:34:05.006Z,24.53
2018-11-25T18:36:35.007Z,14.07
2018-11-25T18:39:06.752Z,11.13
2018-11-25T18:41:36.653Z,18.73
2018-11-25T18:44:06.987Z,14.07
2018-11-25T18:46:46.556Z,14.77
2018-11-25T18:49:11.616Z,15.57
2018-11-25T18:51:41.935Z,13.87
2018-11-25T18:54:11.819Z,12.30
2018-11-25T18:56:41.716Z,13.60
2018-11-25T18:59:11.669Z,10.47
2018-11-25T19:01:46.346Z,13.90
2018-11-25T19:04:16.311Z,11.83
2018-11-25T19:06:46.286Z,28.70
2018-11-25T19:09:16.178Z,15.03
2018-11-25T19:11:46.192Z,14.33
2018-11-25T19:14:16.120Z,15.40
2018-11-25T19:16:46.096Z,15.10
2018-11-25T19:19:15.953Z,15.33
2018-11-25T19:21:45.981Z,14.47
2018-11-25T19:24:16.000Z,16.23
2018-11-25T19:26:45.959Z,12.43
2018-11-25T19:29:16.021Z,10.70
2018-11-25T19:31:46.924Z,15.30
2018-11-25T19:34:16.828Z,9.57
2018-11-25T19:36:46.743Z,11.43
2018-11-25T19:39:16.704Z,9.60
2018-11-25T19:41:46.636Z,11.60
2018-11-25T19:44:16.635Z,10.07
2018-11-25T19:46:46.515Z,10.60
2018-11-25T19:49:16.440Z,9.93
2018-11-25T19:51:46.843Z,10.87
2018-11-25T19:54:16.826Z,6.70
2018-11-25T19:56:46.789Z,11.50
2018-11-25T19:59:18.275Z,8.83
2018-11-25T20:01:48.170Z,11.37
2018-11-25T20:04:18.163Z,45.57
2018-11-25T20:06:47.996Z,25.13
2018-11-25T20:09:18.016Z,19.17
2018-11-25T20:12:05.380Z,13.37
2018-11-25T20:14:35.240Z,13.33
2018-11-25T20:17:41.869Z,9.27
2018-11-25T20:20:22.780Z,9.83
2018-11-25T20:22:53.205Z,9.53
2018-11-25T20:25:23.595Z,10.07
2018-11-25T20:27:54.481Z,10.07
2018-11-25T20:30:27.387Z,12.03
2018-11-25T20:33:02.454Z,9.13
2018-11-25T20:35:32.355Z,11.33
2018-11-25T20:38:07.301Z,10.40
2018-11-25T20:40:37.300Z,9.20
2018-11-25T20:43:07.542Z,9.70
2018-11-25T20:45:42.508Z,10.67
2018-11-25T20:48:12.435Z,20.70
2018-11-25T20:50:42.302Z,16.40
2018-11-25T20:53:17.175Z,17.20
2018-11-25T20:55:47.240Z,15.03
2018-11-25T20:58:17.145Z,16.50
2018-11-25T21:00:47.168Z,15.40
2018-11-25T21:03:17.100Z,16.50
2018-11-25T21:05:47.066Z,15.50
2018-11-25T21:08:16.885Z,16.00
2018-11-25T21:10:46.893Z,13.60
2018-11-25T21:13:16.732Z,14.73
2018-11-25T21:15:46.725Z,17.30
2018-11-25T21:18:16.676Z,13.87
2018-11-25T21:20:51.327Z,13.17
2018-11-25T21:23:17.420Z,15.30
2018-11-25T21:25:46.802Z,13.20
2018-11-25T21:28:16.710Z,11.73
2018-11-25T21:30:46.573Z,12.77
2018-11-25T21:33:16.440Z,14.37
2018-11-25T21:35:46.492Z,17.60
2018-11-25T21:38:16.427Z,15.40
2018-11-25T21:40:46.380Z,15.27
2018-11-25T21:43:16.207Z,19.77
2018-11-25T21:45:46.218Z,21.60
2018-11-25T21:48:16.135Z,19.30
2018-11-25T21:50:46.107Z,13.77
2018-11-25T21:53:16.065Z,15.43
2018-11-25T21:55:46.072Z,13.17
2018-11-25T21:58:16.000Z,14.17
2018-11-25T22:00:46.052Z,18.07
2018-11-25T22:03:15.963Z,13.50
2018-11-25T22:05:45.953Z,19.60
2018-11-25T22:08:15.759Z,30.67
2018-11-25T22:10:45.667Z,22.70
2018-11-25T22:13:15.581Z,17.43
2018-11-25T22:15:45.515Z,18.83
2018-11-25T22:18:15.508Z,18.67
2018-11-25T22:20:45.359Z,16.27
2018-11-25T22:23:15.353Z,17.70
2018-11-25T22:25:45.418Z,18.00
2018-11-25T22:28:15.542Z,15.70
2018-11-25T22:30:45.504Z,19.13
2018-11-25T22:33:15.319Z,19.43
2018-11-25T22:35:45.330Z,15.60
2018-11-25T22:38:15.289Z,18.23
2018-11-25T22:40:45.173Z,23.47
2018-11-25T22:43:15.175Z,16.33
2018-11-25T22:45:45.110Z,15.33
2018-11-25T22:48:15.104Z,18.57
2018-11-25T22:50:45.070Z,13.43
2018-11-25T22:53:14.972Z,12.20
2018-11-25T22:55:45.000Z,15.00
2018-11-25T22:58:14.884Z,16.27
2018-11-25T23:00:45.092Z,16.07
2018-11-25T23:03:15.052Z,13.67
2018-11-25T23:05:55.530Z,13.97
2018-11-25T23:08:25.427Z,12.93
2018-11-25T23:10:55.405Z,15.10
2018-11-25T23:13:25.364Z,14.07
2018-11-25T23:15:55.398Z,11.83
2018-11-25T23:18:25.355Z,11.67
2018-11-25T23:20:55.186Z,10.27
2018-11-25T23:23:25.180Z,11.77
2018-11-25T23:25:55.348Z,11.50
2018-11-25T23:28:25.280Z,10.03
2018-11-25T23:30:55.217Z,13.53
2018-11-25T23:33:25.210Z,18.30
2018-11-25T23:35:55.167Z,19.77
2018-11-25T23:38:25.034Z,13.20
2018-11-25T23:40:55.206Z,14.60
2018-11-25T23:43:25.160Z,17.20
2018-11-25T23:45:55.077Z,19.53
2018-11-25T23:48:25.096Z,27.50
2018-11-25T23:50:55.009Z,23.87
2018-11-25T23:53:24.986Z,18.00
2018-11-25T23:55:54.915Z,19.73
2018-11-25T23:58:24.927Z,23.33
